createdAt,value
2023-04-16T06:38:34.196Z,51.156105
2023-04-16T06:39:33.878Z,51.156120
2023-04-16T06:40:33.829Z,51.156113
2023-04-16T06:41:33.815Z,51.156116
2023-04-16T06:42:33.785Z,51.156109
2023-04-16T06:43:33.862Z,51.156078
2023-04-16T06:44:33.906Z,51.156101
2023-04-16T06:45:33.782Z,51.156147
2023-04-16T06:46:33.878Z,51.156158
2023-04-16T06:47:33.814Z,51.156105
2023-04-16T06:48:33.766Z,51.156090
2023-04-16T06:49:33.834Z,51.156078
2023-04-16T06:50:33.719Z,51.156063
2023-04-16T06:51:33.987Z,51.156059
2023-04-16T06:52:33.811Z,51.156063
2023-04-16T06:53:33.767Z,51.156067
2023-04-16T06:54:33.900Z,51.156082
2023-04-16T06:55:33.736Z,51.156094
2023-04-16T06:56:33.887Z,51.156086
2023-04-16T06:57:34.734Z,51.156113
2023-04-16T06:58:34.511Z,51.156090
2023-04-16T06:59:33.660Z,51.156090
2023-04-16T07:00:33.702Z,51.156086
2023-04-16T07:01:33.703Z,51.156048
2023-04-16T07:02:33.850Z,51.156067
2023-04-16T07:03:33.727Z,51.156078
2023-04-16T07:11:48.800Z,51.156105
2023-04-16T07:12:48.791Z,51.156101
2023-04-16T07:13:48.713Z,51.156101
2023-04-16T07:14:48.766Z,51.156101
2023-04-16T07:15:48.945Z,51.156078
2023-04-16T07:16:48.749Z,51.156113
2023-04-16T07:17:48.693Z,51.156116
2023-04-16T07:18:49.322Z,51.156113
2023-04-16T07:19:48.708Z,51.156063
2023-04-16T07:20:48.765Z,51.156116
2023-04-16T07:21:48.692Z,51.156097
2023-04-16T07:22:48.635Z,51.156097
2023-04-16T07:23:48.781Z,51.156097
2023-04-16T07:24:48.769Z,51.156120
2023-04-16T07:25:48.805Z,51.156120
2023-04-16T07:26:48.624Z,51.156120
2023-04-16T07:27:48.613Z,51.156116
2023-04-16T07:28:48.695Z,51.156113
2023-04-16T07:29:48.601Z,51.156113
2023-04-16T07:30:49.621Z,51.156136
2023-04-16T07:31:48.547Z,51.156151
2023-04-16T07:32:48.605Z,51.156162
2023-04-16T07:33:48.511Z,51.156143
2023-04-16T07:34:49.435Z,51.156124
2023-04-16T07:35:48.535Z,51.156124
2023-04-16T07:36:48.533Z,51.156109
2023-04-16T07:37:48.524Z,51.156128
2023-04-16T07:38:48.528Z,51.156132
2023-04-16T07:39:48.672Z,51.156136
2023-04-16T07:40:48.510Z,51.156128
2023-04-16T07:41:48.556Z,51.156113
2023-04-16T07:42:48.426Z,51.156124
2023-04-16T07:43:48.470Z,51.156155
2023-04-16T07:44:48.717Z,51.156178
2023-04-16T07:45:48.483Z,51.156139
2023-04-16T07:46:48.451Z,51.156158
2023-04-16T07:47:48.497Z,51.156178
2023-04-16T07:48:48.381Z,51.156155
2023-04-16T07:49:48.409Z,51.156151
2023-04-16T07:50:48.423Z,51.156097
2023-04-16T07:51:49.332Z,51.156143
2023-04-16T07:52:48.355Z,51.156139
2023-04-16T07:53:48.501Z,51.156139
2023-04-16T07:54:48.340Z,51.156124
2023-04-16T07:55:48.497Z,51.156128
2023-04-16T07:56:48.330Z,51.156086
2023-04-16T07:57:48.267Z,51.156113
2023-04-16T07:58:48.320Z,51.156090
2023-04-16T07:59:48.270Z,51.156116
2023-04-16T08:00:49.797Z,51.156124
2023-04-16T08:01:48.422Z,51.156128
2023-04-16T08:02:48.342Z,51.156139
2023-04-16T08:03:48.538Z,51.156155
2023-04-16T08:04:48.289Z,51.156124
2023-04-16T08:05:48.329Z,51.156151
2023-04-16T08:06:48.284Z,51.156158
2023-04-16T08:07:48.173Z,51.156170
2023-04-16T08:08:48.257Z,51.156136
2023-04-16T08:09:48.216Z,51.156155
2023-04-16T08:10:48.173Z,51.156155
2023-04-16T08:11:48.190Z,51.156158
2023-04-16T08:12:48.176Z,51.156155
2023-04-16T08:13:48.077Z,51.156162
2023-04-16T08:14:48.118Z,51.156082
2023-04-16T08:15:48.418Z,51.156116
2023-04-16T08:16:48.427Z,51.156132
2023-04-16T08:17:48.139Z,51.156105
2023-04-16T08:18:48.362Z,51.156132
2023-04-16T08:19:48.163Z,51.156158
2023-04-16T08:20:48.337Z,51.156143
2023-04-16T08:21:48.153Z,51.156116
2023-04-16T08:22:48.205Z,51.156078
2023-04-16T08:23:48.726Z,51.156048
2023-04-16T08:24:48.101Z,51.156040
2023-04-16T08:25:48.223Z,51.156033
2023-04-16T08:26:48.367Z,51.156059
2023-04-16T08:27:49.257Z,51.156067
2023-04-16T08:28:48.437Z,51.156082
2023-04-16T08:29:48.475Z,51.156082
2023-04-16T08:30:48.129Z,51.156075
2023-04-16T08:31:48.312Z,51.156063
2023-04-16T08:32:50.034Z,51.156044
2023-04-16T08:33:49.375Z,51.156067
2023-04-16T08:34:48.310Z,51.156082
2023-04-16T08:36:16.120Z,51.156078
2023-04-16T08:36:48.370Z,51.156086
2023-04-16T08:37:48.535Z,51.156097
2023-04-16T08:56:12.428Z,51.155930
2023-04-16T08:57:12.270Z,51.156052
2023-04-16T08:58:12.323Z,51.156101
2023-04-16T08:59:12.394Z,51.156086
2023-04-16T09:00:12.333Z,51.156113
2023-04-16T09:01:12.259Z,51.156116
2023-04-16T09:02:12.332Z,51.156116
2023-04-16T09:03:12.287Z,51.156086
2023-04-16T09:04:12.366Z,51.156086
2023-04-16T09:05:12.188Z,51.156147
2023-04-16T09:22:34.332Z,51.156132
2023-04-16T09:23:34.148Z,51.156109
2023-04-16T09:24:34.037Z,51.156113
2023-04-16T09:25:34.012Z,51.156090
2023-04-16T09:26:34.103Z,51.156109
